Terminal Aerodrome Forecast
Issued by NWS

Home | Current Version | Previous Version | Text Only | Print | Product List | Glossary On
Versions: 1 2 3 4 5 6 7 8 9 10 11 12 13 14 15 16 17 18 19 20 21 22 23 24 25 26 27 28 29 30 31 32 33 34 35 36 37 38 39 40 41 42 43 44 45 46 47 48
149
FTUS43 KGLD 242337
TAFMCK
TAF
KMCK 242337Z 2500/2524 36014KT P6SM -SHRA FEW010 OVC030
      TEMPO 2500/2502 BKN018
     FM250400 01009KT P6SM SCT030 BKN070
     FM251000 34009KT 6SM BR BKN008
     FM251200 34007KT 2SM BR BKN003
     FM251600 35007KT P6SM FEW070
     FM252300 06004KT P6SM FEW250=

USA.gov is the U.S. government's official web portal to all federal, state and local government web resources and services.